createdAt,value
2018-07-06T00:00:53.070Z,2.07
2018-07-06T00:03:39.252Z,2.40
2018-07-06T00:06:25.518Z,2.47
2018-07-06T00:09:11.782Z,2.30
2018-07-06T00:11:58.450Z,2.43
2018-07-06T00:14:44.695Z,1.90
2018-07-06T00:17:31.127Z,2.10
2018-07-06T00:20:17.550Z,1.80
2018-07-06T00:23:03.910Z,1.70
2018-07-06T00:25:50.466Z,1.80
2018-07-06T00:28:37.026Z,2.30
2018-07-06T00:31:23.304Z,1.80
2018-07-06T00:34:09.727Z,2.90
2018-07-06T00:36:56.134Z,2.03
2018-07-06T00:39:42.576Z,1.83
2018-07-06T00:42:28.663Z,2.10
2018-07-06T00:45:14.966Z,2.00
2018-07-06T00:48:01.305Z,2.03
2018-07-06T00:50:47.616Z,2.13
2018-07-06T00:53:33.978Z,2.20
2018-07-06T00:56:20.351Z,1.90
2018-07-06T00:59:06.626Z,2.80
2018-07-06T01:01:53.052Z,2.43
2018-07-06T01:04:39.314Z,2.20
2018-07-06T01:07:25.722Z,2.80
2018-07-06T01:10:12.078Z,3.00
2018-07-06T01:13:01.386Z,2.30
2018-07-06T01:15:47.653Z,2.63
2018-07-06T01:18:34.066Z,2.50
2018-07-06T01:21:20.514Z,2.50
2018-07-06T01:24:06.624Z,2.60
2018-07-06T01:26:53.133Z,2.20
2018-07-06T01:29:39.326Z,2.47
2018-07-06T01:32:25.772Z,2.73
2018-07-06T01:35:12.210Z,3.07
2018-07-06T01:37:58.419Z,2.73
2018-07-06T01:40:44.871Z,3.00
2018-07-06T01:43:31.339Z,2.40
2018-07-06T01:46:17.413Z,2.10
2018-07-06T01:49:03.602Z,2.40
2018-07-06T01:51:49.886Z,2.70
2018-07-06T01:54:36.309Z,2.97
2018-07-06T01:57:22.661Z,2.83
2018-07-06T02:00:08.941Z,2.93
2018-07-06T02:02:55.651Z,2.73
2018-07-06T02:05:41.946Z,2.70
2018-07-06T02:08:28.414Z,2.87
2018-07-06T02:11:14.753Z,3.80
2018-07-06T02:14:01.290Z,5.10
2018-07-06T02:16:47.375Z,3.40
2018-07-06T02:19:33.562Z,4.43
2018-07-06T02:22:19.686Z,4.03
2018-07-06T02:25:06.353Z,3.70
2018-07-06T02:27:52.571Z,4.07
2018-07-06T02:30:38.851Z,4.40
2018-07-06T02:33:25.127Z,6.10
2018-07-06T02:36:11.383Z,4.30
2018-07-06T02:38:57.595Z,4.27
2018-07-06T02:41:44.120Z,4.20
2018-07-06T02:44:30.558Z,4.70
2018-07-06T02:47:16.890Z,4.40
2018-07-06T02:50:03.194Z,3.13
2018-07-06T02:52:49.619Z,3.23
2018-07-06T02:55:35.951Z,3.43
2018-07-06T02:58:23.076Z,3.47
2018-07-06T03:01:09.171Z,3.77
2018-07-06T03:03:55.502Z,4.23
2018-07-06T03:06:41.742Z,3.60
2018-07-06T03:09:28.040Z,3.47
2018-07-06T03:12:14.406Z,2.80
2018-07-06T03:15:00.646Z,3.53
2018-07-06T03:17:46.927Z,3.87
2018-07-06T03:20:33.342Z,3.10
2018-07-06T03:23:19.602Z,2.43
2018-07-06T03:26:06.101Z,2.47
2018-07-06T03:28:52.548Z,2.40
2018-07-06T03:31:39.054Z,2.73
2018-07-06T03:34:25.330Z,2.47
2018-07-06T03:37:11.627Z,2.83
2018-07-06T03:39:58.158Z,1.90
2018-07-06T03:42:44.366Z,2.90
2018-07-06T03:45:30.646Z,3.20
2018-07-06T03:48:17.098Z,2.40
2018-07-06T03:51:03.527Z,2.13
2018-07-06T03:53:50.017Z,3.00
2018-07-06T03:56:36.771Z,3.70
2018-07-06T03:59:22.902Z,4.03
2018-07-06T04:02:09.265Z,47.20
2018-07-06T04:04:55.735Z,27.10
2018-07-06T04:07:42.550Z,29.33
2018-07-06T04:10:28.954Z,18.17
2018-07-06T04:13:15.497Z,36.80
2018-07-06T04:16:02.012Z,32.47
2018-07-06T04:18:48.507Z,28.07
2018-07-06T04:21:34.810Z,20.33
2018-07-06T04:24:21.250Z,18.10
2018-07-06T04:27:07.666Z,18.00
2018-07-06T04:29:53.982Z,13.67
2018-07-06T04:32:40.282Z,8.00
2018-07-06T04:35:26.535Z,6.70
2018-07-06T04:38:12.862Z,4.63
2018-07-06T04:40:59.174Z,4.40
2018-07-06T04:43:45.659Z,5.07
2018-07-06T04:46:32.125Z,3.83
2018-07-06T04:49:18.440Z,3.97
2018-07-06T04:52:05.143Z,3.20
2018-07-06T04:54:51.491Z,5.03
2018-07-06T04:57:37.886Z,4.20
2018-07-06T05:00:24.302Z,2.67
2018-07-06T05:03:10.694Z,3.20
2018-07-06T05:05:56.954Z,2.80
2018-07-06T05:08:43.174Z,2.47
2018-07-06T05:18:46.918Z,2.80
2018-07-06T05:21:33.348Z,2.40
2018-07-06T05:24:19.745Z,2.93
2018-07-06T05:27:06.074Z,2.83
2018-07-06T05:29:52.562Z,2.63
2018-07-06T05:32:39.002Z,3.17
2018-07-06T05:35:25.327Z,3.80
2018-07-06T05:38:11.706Z,2.70
2018-07-06T05:40:57.855Z,6.43
2018-07-06T05:43:44.158Z,5.83
2018-07-06T05:46:30.938Z,2.93
2018-07-06T05:49:17.443Z,3.83
2018-07-06T05:52:03.720Z,3.10
2018-07-06T05:54:50.095Z,3.90
2018-07-06T05:57:36.514Z,4.27
2018-07-06T06:00:22.822Z,4.80
2018-07-06T06:03:09.259Z,2.70
2018-07-06T06:05:55.586Z,5.27
2018-07-06T06:08:23.214Z,4.07
2018-07-06T06:10:52.442Z,3.20
2018-07-06T06:13:21.766Z,4.80
2018-07-06T06:15:51.018Z,5.10
2018-07-06T06:18:20.271Z,4.13
2018-07-06T06:20:49.689Z,7.13
2018-07-06T06:23:18.982Z,9.67
2018-07-06T06:25:48.155Z,4.70
2018-07-06T06:28:17.354Z,5.77
2018-07-06T06:30:46.663Z,10.03
2018-07-06T06:33:16.024Z,3.77
2018-07-06T06:35:45.171Z,4.40
2018-07-06T06:38:14.510Z,4.47
2018-07-06T06:40:43.703Z,3.83
2018-07-06T06:43:13.028Z,3.80
2018-07-06T06:45:42.254Z,3.60
2018-07-06T06:48:11.438Z,4.63
2018-07-06T06:50:40.789Z,5.27
2018-07-06T06:53:10.177Z,4.93
2018-07-06T06:55:39.355Z,4.83
2018-07-06T06:58:08.586Z,5.77
2018-07-06T07:00:37.921Z,7.10
2018-07-06T07:03:07.190Z,4.70
2018-07-06T07:05:36.470Z,5.13
2018-07-06T07:08:05.687Z,4.83
2018-07-06T07:10:35.151Z,5.07
2018-07-06T07:13:04.403Z,5.93
2018-07-06T07:15:33.745Z,5.77
2018-07-06T07:18:02.990Z,6.80
2018-07-06T07:20:33.163Z,8.43
2018-07-06T07:23:02.845Z,6.67
2018-07-06T07:25:32.110Z,5.97
2018-07-06T07:28:01.377Z,6.03
2018-07-06T07:30:30.726Z,6.23
2018-07-06T07:33:00.272Z,8.50
2018-07-06T07:35:29.483Z,6.60
2018-07-06T07:37:59.138Z,4.37
2018-07-06T07:40:28.509Z,5.53
2018-07-06T07:42:58.495Z,4.90
2018-07-06T07:45:27.722Z,2.57
2018-07-06T07:47:57.071Z,5.55
2018-07-06T07:50:26.282Z,6.53
2018-07-06T07:53:12.414Z,2.87
2018-07-06T07:55:41.803Z,3.10
2018-07-06T07:58:11.106Z,3.93
2018-07-06T08:00:40.853Z,4.00
2018-07-06T08:03:09.965Z,3.23
2018-07-06T08:05:39.213Z,4.47
2018-07-06T08:08:08.431Z,3.40
2018-07-06T08:10:37.913Z,3.60
2018-07-06T08:13:07.158Z,3.57
2018-07-06T08:15:36.378Z,4.30
2018-07-06T08:18:05.926Z,3.20
2018-07-06T08:20:35.141Z,4.20
2018-07-06T08:23:04.343Z,5.07
2018-07-06T08:25:33.631Z,3.77
2018-07-06T08:28:02.798Z,3.10
2018-07-06T08:30:32.032Z,3.87
2018-07-06T08:33:01.310Z,3.33
2018-07-06T08:35:47.690Z,4.27
2018-07-06T08:38:17.070Z,5.53
2018-07-06T08:40:46.279Z,5.00
2018-07-06T08:43:15.459Z,3.50
2018-07-06T08:45:44.727Z,3.07
2018-07-06T08:48:13.884Z,4.13
2018-07-06T08:50:43.127Z,4.13
2018-07-06T08:53:12.462Z,3.63
2018-07-06T08:55:41.676Z,3.35
2018-07-06T08:58:10.919Z,4.07
2018-07-06T09:00:40.139Z,4.47
2018-07-06T09:03:09.382Z,3.93
2018-07-06T09:05:38.570Z,4.63
2018-07-06T09:08:07.818Z,3.35
2018-07-06T09:10:36.986Z,2.53
2018-07-06T09:13:07.014Z,2.97
2018-07-06T09:15:36.164Z,3.63
